Time;durP1;ratioP1;P1;durP2;ratioP2;P2;SDS_P1;SDS_P2;PMS_P1;PMS_P2;Temp;Humidity;BMP_temperature;BMP_pressure;BME280_temperature;BME280_humidity;BME280_pressure;Samples;Min_cycle;Max_cycle;Signal;HPM_P1;HPM_P2
2021/09/06 00:02:25;;;;;;;;;;;;;;;13.30;100.00;101654.47;5077277;28;19928;-71
2021/09/06 00:04:51;;;;;;;;;;;;;;;13.28;100.00;101657.31;5077345;28;20391;-71
2021/09/06 00:07:18;;;;;;;;;;;;;;;13.24;100.00;101661.25;5076955;28;20398;-71
2021/09/06 00:09:44;;;;;;;;;;;;;;;13.18;100.00;101657.13;5077119;28;19970;-71
2021/09/06 00:12:10;;;;;;;;;;;;;;;13.16;100.00;101653.69;5074503;28;19978;-71
2021/09/06 00:14:37;;;;;;;;;;;;;;;13.14;100.00;101644.75;5073951;28;20041;-71
2021/09/06 00:17:05;;;;;;;;;;;;;;;13.17;100.00;101640.91;5073448;28;19947;-70
2021/09/06 00:19:31;;;;;;;;;;;;;;;13.15;100.00;101645.63;5073957;28;19924;-71
2021/09/06 00:21:59;;;;;;;;;;;;;;;13.15;100.00;101646.50;5074057;28;19924;-71
2021/09/06 00:24:25;;;;;;;;;;;;;;;13.10;100.00;101651.41;5073975;28;20469;-71
2021/09/06 00:26:51;;;;;;;;;;;;;;;13.07;100.00;101649.78;5073559;28;20019;-70
2021/09/06 00:29:17;;;;;;;;;;;;;;;13.04;100.00;101652.78;5073674;28;19968;-71
2021/09/06 00:31:44;;;;;;;;;;;;;;;13.04;100.00;101641.88;5073426;28;19924;-71
2021/09/06 00:34:12;;;;;;;;;;;;;;;12.96;100.00;101641.59;5073744;28;20395;-71
2021/09/06 00:36:38;;;;;;;;;;;;;;;12.91;100.00;101638.34;5055556;28;19960;-71
2021/09/06 00:39:05;;;;;;;;;;;;;;;12.90;100.00;101634.75;5073501;28;19924;-71
2021/09/06 00:41:31;;;;;;;;;;;;;;;12.82;100.00;101639.91;5072593;28;19931;-71
2021/09/06 00:43:58;;;;;;;;;;;;;;;12.79;100.00;101639.31;5073405;28;19932;-71
2021/09/06 00:46:24;;;;;;;;;;;;;;;12.82;100.00;101630.88;5072415;28;19928;-71
2021/09/06 00:48:50;;;;;;;;;;;;;;;12.81;100.00;101632.72;5054829;28;19924;-71
2021/09/06 00:51:18;;;;;;;;;;;;;;;12.79;100.00;101633.84;5073809;28;19955;-71
2021/09/06 00:53:44;;;;;;;;;;;;;;;12.82;100.00;101623.56;5073133;28;20011;-71
2021/09/06 00:56:10;;;;;;;;;;;;;;;12.83;100.00;101628.03;5073075;28;19962;-70
2021/09/06 00:58:37;;;;;;;;;;;;;;;12.87;100.00;101631.41;5073051;28;20187;-71
2021/09/06 01:01:03;;;;;;;;;;;;;;;12.82;100.00;101631.75;5055079;28;19925;-71
2021/09/06 01:03:30;;;;;;;;;;;;;;;12.75;100.00;101633.19;5073308;28;20272;-71
2021/09/06 01:06:05;;;;;;;;;;;;;;;12.74;100.00;101628.75;5071478;28;20372;-71
2021/09/06 01:08:56;;;;;;;;;;;;;;;12.76;100.00;101626.78;5064433;28;20311;-71
2021/09/06 01:11:48;;;;;;;;;;;;;;;12.75;100.00;101626.88;5069634;28;19928;-71
2021/09/06 01:14:22;;;;;;;;;;;;;;;12.63;100.00;101631.41;5071923;28;19925;-71
2021/09/06 01:16:49;;;;;;;;;;;;;;;12.55;100.00;101626.53;5054799;28;20288;-71
2021/09/06 01:19:16;;;;;;;;;;;;;;;12.49;100.00;101629.72;5071549;28;20249;-71
2021/09/06 01:21:44;;;;;;;;;;;;;;;12.45;100.00;101639.09;5071591;28;20376;-72
2021/09/06 01:24:32;;;;;;;;;;;;;;;12.37;100.00;101645.13;5072279;28;20015;-71
2021/09/06 01:27:03;;;;;;;;;;;;;;;12.23;100.00;101637.97;5070710;28;19979;-71
2021/09/06 01:29:29;;;;;;;;;;;;;;;12.24;100.00;101637.00;5054547;28;19978;-71
2021/09/06 01:31:58;;;;;;;;;;;;;;;12.20;100.00;101644.53;5054796;28;19951;-71
2021/09/06 01:34:25;;;;;;;;;;;;;;;12.14;100.00;101647.69;5071432;28;20021;-71
2021/09/06 01:36:56;;;;;;;;;;;;;;;12.11;100.00;101647.91;5054602;28;19925;-71
2021/09/06 01:39:23;;;;;;;;;;;;;;;12.02;100.00;101645.88;5054718;28;20328;-71
2021/09/06 01:41:49;;;;;;;;;;;;;;;12.01;100.00;101646.84;5054287;28;19977;-71
2021/09/06 01:44:19;;;;;;;;;;;;;;;11.87;100.00;101647.81;5054712;28;19932;-71
2021/09/06 01:46:45;;;;;;;;;;;;;;;11.74;100.00;101647.81;5072078;28;19964;-71
2021/09/06 01:49:11;;;;;;;;;;;;;;;11.62;100.00;101643.25;5070856;28;20019;-71
2021/09/06 01:51:39;;;;;;;;;;;;;;;11.52;100.00;101640.34;5054313;28;20281;-71
2021/09/06 01:54:06;;;;;;;;;;;;;;;11.47;100.00;101634.34;5070931;28;20315;-71
2021/09/06 01:56:32;;;;;;;;;;;;;;;11.33;100.00;101638.91;5054063;28;20012;-71
2021/09/06 01:59:00;;;;;;;;;;;;;;;11.33;100.00;101635.31;5070437;28;19924;-71
2021/09/06 02:01:28;;;;;;;;;;;;;;;11.32;100.00;101644.47;5054340;28;20376;-71
2021/09/06 02:03:54;;;;;;;;;;;;;;;11.32;100.00;101639.03;5070851;28;20033;-71
2021/09/06 02:06:21;;;;;;;;;;;;;;;11.31;100.00;101631.84;5054034;28;19978;-71
2021/09/06 02:08:57;;;;;;;;;;;;;;;11.26;100.00;101634.88;5070511;28;20019;-71
2021/09/06 02:11:27;;;;;;;;;;;;;;;11.23;100.00;101640.53;5070765;28;19928;-71
2021/09/06 02:13:54;;;;;;;;;;;;;;;11.20;100.00;101643.47;5070724;28;19924;-71
2021/09/06 02:16:21;;;;;;;;;;;;;;;11.21;100.00;101645.19;5071183;28;20023;-71
2021/09/06 02:18:49;;;;;;;;;;;;;;;11.22;100.00;101642.38;5070549;28;19941;-71
2021/09/06 02:21:15;;;;;;;;;;;;;;;11.27;100.00;101649.34;5071543;28;19968;-71
2021/09/06 02:23:45;;;;;;;;;;;;;;;11.29;100.00;101647.38;5071961;28;19931;-71
2021/09/06 02:26:12;;;;;;;;;;;;;;;11.28;100.00;101651.09;5070104;28;20395;-71
2021/09/06 02:28:38;;;;;;;;;;;;;;;11.20;100.00;101649.75;5070518;28;20392;-71
2021/09/06 02:31:07;;;;;;;;;;;;;;;11.18;100.00;101649.00;5070187;28;19933;-71
2021/09/06 02:33:51;;;;;;;;;;;;;;;11.10;100.00;101643.22;5071735;28;19924;-71
2021/09/06 02:36:30;;;;;;;;;;;;;;;11.07;100.00;101658.88;5053053;28;20023;-72
2021/09/06 02:38:57;;;;;;;;;;;;;;;11.16;100.00;101650.94;5053158;28;19924;-71
2021/09/06 02:41:23;;;;;;;;;;;;;;;11.15;100.00;101651.06;5070256;28;19929;-71
2021/09/06 02:43:51;;;;;;;;;;;;;;;11.16;100.00;101645.50;5070226;28;19932;-72
2021/09/06 02:46:18;;;;;;;;;;;;;;;11.19;100.00;101649.88;5071567;28;19932;-71
2021/09/06 02:48:44;;;;;;;;;;;;;;;11.10;100.00;101651.34;5069990;28;19964;-71
2021/09/06 02:51:12;;;;;;;;;;;;;;;11.08;100.00;101647.91;5071430;28;19925;-71
2021/09/06 02:53:38;;;;;;;;;;;;;;;11.00;100.00;101650.28;5053588;28;20407;-71
2021/09/06 02:56:05;;;;;;;;;;;;;;;10.89;100.00;101651.00;5069811;28;19970;-71
2021/09/06 02:58:35;;;;;;;;;;;;;;;10.82;100.00;101639.69;5070003;28;19932;-71
2021/09/06 03:01:02;;;;;;;;;;;;;;;10.75;100.00;101648.34;5053049;28;19931;-71
2021/09/06 03:03:28;;;;;;;;;;;;;;;10.67;100.00;101646.16;5070246;28;19951;-71
2021/09/06 03:05:54;;;;;;;;;;;;;;;10.58;100.00;101646.75;5053194;28;19931;-71
2021/09/06 03:08:22;;;;;;;;;;;;;;;10.49;100.00;101640.09;5071116;28;20360;-71
2021/09/06 03:10:50;;;;;;;;;;;;;;;10.39;100.00;101650.69;5069746;28;20048;-71
2021/09/06 03:13:17;;;;;;;;;;;;;;;10.29;100.00;101646.78;5069972;28;19959;-71
2021/09/06 03:15:46;;;;;;;;;;;;;;;10.19;100.00;101641.97;5070110;28;19929;-71
2021/09/06 03:18:12;;;;;;;;;;;;;;;10.11;100.00;101652.44;5069683;28;20080;-71
2021/09/06 03:21:11;;;;;;;;;;;;;;;10.00;100.00;101646.88;5055506;28;20306;-71
2021/09/06 03:23:39;;;;;;;;;;;;;;;9.93;100.00;101651.81;5069699;28;19946;-71
2021/09/06 03:26:06;;;;;;;;;;;;;;;9.82;100.00;101643.47;5070917;28;19932;-71
2021/09/06 03:28:34;;;;;;;;;;;;;;;9.76;100.00;101655.59;5069735;28;19928;-71
2021/09/06 03:31:01;;;;;;;;;;;;;;;9.70;100.00;101646.00;5069500;28;20346;-71
2021/09/06 03:33:30;;;;;;;;;;;;;;;9.63;100.00;101638.34;5053233;28;19967;-71
2021/09/06 03:35:56;;;;;;;;;;;;;;;9.58;100.00;101640.47;5052864;28;19924;-71
2021/09/06 03:38:23;;;;;;;;;;;;;;;9.52;100.00;101641.72;5069561;28;19929;-71
2021/09/06 03:40:51;;;;;;;;;;;;;;;9.49;100.00;101647.34;5069631;28;19952;-71
2021/09/06 03:43:18;;;;;;;;;;;;;;;9.46;100.00;101642.09;5053059;28;19925;-71
2021/09/06 03:45:44;;;;;;;;;;;;;;;9.41;100.00;101633.38;5069309;28;19970;-71
2021/09/06 03:48:11;;;;;;;;;;;;;;;9.37;100.00;101638.13;5072045;28;19975;-71
2021/09/06 03:50:38;;;;;;;;;;;;;;;9.33;100.00;101642.00;5073349;28;20316;-71
2021/09/06 03:53:05;;;;;;;;;;;;;;;9.26;100.00;101641.50;5073095;28;20034;-71
2021/09/06 03:55:31;;;;;;;;;;;;;;;9.18;100.00;101636.56;5074358;28;20011;-71
2021/09/06 03:58:00;;;;;;;;;;;;;;;9.15;100.00;101636.75;5056265;28;20199;-71
2021/09/06 04:00:28;;;;;;;;;;;;;;;9.12;100.00;101642.34;5056224;28;21436;-71
2021/09/06 04:02:54;;;;;;;;;;;;;;;9.06;100.00;101653.56;5074263;28;19970;-71
2021/09/06 04:05:26;;;;;;;;;;;;;;;9.01;100.00;101650.25;5056335;28;19931;-71
2021/09/06 04:07:55;;;;;;;;;;;;;;;8.99;100.00;101652.16;5056219;28;20011;-71
2021/09/06 04:10:22;;;;;;;;;;;;;;;8.92;100.00;101654.38;5056303;28;19932;-71
2021/09/06 04:12:49;;;;;;;;;;;;;;;8.87;100.00;101657.34;5056525;28;19925;-71
2021/09/06 04:15:16;;;;;;;;;;;;;;;8.82;100.00;101651.34;5072790;28;20367;-71
2021/09/06 04:17:42;;;;;;;;;;;;;;;8.80;100.00;101661.38;5074056;28;19924;-71
2021/09/06 04:20:10;;;;;;;;;;;;;;;8.76;100.00;101658.94;5072551;28;19924;-71
2021/09/06 04:22:38;;;;;;;;;;;;;;;8.71;100.00;101656.50;5073781;28;20384;-71
2021/09/06 04:25:05;;;;;;;;;;;;;;;8.70;100.00;101669.16;5055836;28;19929;-71
2021/09/06 04:27:31;;;;;;;;;;;;;;;8.69;100.00;101658.44;5072541;28;20303;-71
2021/09/06 04:29:58;;;;;;;;;;;;;;;8.70;100.00;101663.75;5055981;28;19939;-71
2021/09/06 04:32:27;;;;;;;;;;;;;;;8.69;100.00;101664.72;5072529;28;20032;-71
2021/09/06 04:34:54;;;;;;;;;;;;;;;8.68;100.00;101660.25;5055951;28;20216;-71
2021/09/06 04:37:20;;;;;;;;;;;;;;;8.66;100.00;101659.50;5055462;28;20281;-71
2021/09/06 04:39:47;;;;;;;;;;;;;;;8.65;100.00;101656.88;5055580;28;19924;-71
2021/09/06 04:42:13;;;;;;;;;;;;;;;8.62;100.00;101654.31;5055624;28;19939;-71
2021/09/06 04:44:40;;;;;;;;;;;;;;;8.62;100.00;101657.03;5055705;28;20053;-72
2021/09/06 04:47:07;;;;;;;;;;;;;;;8.60;100.00;101662.53;5055342;28;19924;-71
2021/09/06 04:49:35;;;;;;;;;;;;;;;8.59;100.00;101660.81;5055527;28;19928;-71
2021/09/06 04:52:01;;;;;;;;;;;;;;;8.60;100.00;101672.50;5073508;28;19977;-71
2021/09/06 04:54:29;;;;;;;;;;;;;;;8.61;100.00;101671.56;5055539;28;19925;-71
2021/09/06 04:56:56;;;;;;;;;;;;;;;8.62;100.00;101667.84;5054997;28;19929;-71
2021/09/06 04:59:23;;;;;;;;;;;;;;;8.64;100.00;101669.53;5072679;28;20023;-71
2021/09/06 05:01:51;;;;;;;;;;;;;;;8.70;100.00;101671.03;5071974;28;19925;-71
2021/09/06 05:04:18;;;;;;;;;;;;;;;8.74;100.00;101672.59;5055501;28;20403;-71
2021/09/06 05:06:45;;;;;;;;;;;;;;;8.81;100.00;101664.97;5054925;28;20015;-71
2021/09/06 05:09:12;;;;;;;;;;;;;;;8.94;100.00;101667.81;5054907;28;20002;-71
2021/09/06 05:11:38;;;;;;;;;;;;;;;9.07;100.00;101668.81;5072945;28;19924;-71
2021/09/06 05:14:05;;;;;;;;;;;;;;;9.19;100.00;101675.34;5071362;28;19924;-71
2021/09/06 05:16:31;;;;;;;;;;;;;;;9.27;100.00;101674.88;5054884;28;20306;-71
2021/09/06 05:18:57;;;;;;;;;;;;;;;9.38;100.00;101677.81;5054837;28;19989;-71
2021/09/06 05:21:24;;;;;;;;;;;;;;;9.51;100.00;101681.53;5071612;28;19964;-71
2021/09/06 05:23:52;;;;;;;;;;;;;;;9.77;100.00;101679.03;5054694;28;20296;-71
2021/09/06 05:26:19;;;;;;;;;;;;;;;10.26;100.00;101685.00;5054606;28;19928;-71
2021/09/06 05:28:47;;;;;;;;;;;;;;;10.73;100.00;101672.91;5054295;28;19924;-71
2021/09/06 05:31:14;;;;;;;;;;;;;;;11.26;100.00;101667.47;5054417;28;19924;-71
2021/09/06 05:33:42;;;;;;;;;;;;;;;11.80;100.00;101657.38;5054824;28;20183;-71
2021/09/06 05:36:12;;;;;;;;;;;;;;;12.27;100.00;101663.13;5054510;28;19931;-71
2021/09/06 05:38:39;;;;;;;;;;;;;;;12.77;100.00;101663.06;5054539;28;19930;-71
2021/09/06 05:41:20;;;;;;;;;;;;;;;13.25;100.00;101662.13;5070993;28;19924;-71
2021/09/06 05:43:47;;;;;;;;;;;;;;;13.74;100.00;101658.28;5071281;28;19931;-71
2021/09/06 05:46:14;;;;;;;;;;;;;;;14.08;100.00;101658.28;5054184;28;19924;-72
2021/09/06 05:48:40;;;;;;;;;;;;;;;14.42;100.00;101657.38;5054218;28;20353;-71
2021/09/06 05:51:07;;;;;;;;;;;;;;;14.63;100.00;101660.19;5053787;28;19956;-71
2021/09/06 05:53:53;;;;;;;;;;;;;;;14.68;100.00;101652.50;5040545;28;19928;-71
2021/09/06 05:56:21;;;;;;;;;;;;;;;14.90;100.00;101663.34;5070468;28;20376;-71
2021/09/06 05:58:49;;;;;;;;;;;;;;;14.84;100.00;101654.81;5034042;28;19925;-71
2021/09/06 06:01:17;;;;;;;;;;;;;;;15.02;100.00;101657.84;5050682;28;20281;-70
2021/09/06 06:03:44;;;;;;;;;;;;;;;15.14;100.00;101656.78;5051943;28;20015;-71
2021/09/06 06:06:16;;;;;;;;;;;;;;;15.22;100.00;101659.72;5050588;28;20011;-70
2021/09/06 06:08:43;;;;;;;;;;;;;;;15.36;100.00;101657.66;5050253;28;19925;-70
2021/09/06 06:11:09;;;;;;;;;;;;;;;15.74;100.00;101659.78;5050990;28;19925;-71
2021/09/06 06:13:37;;;;;;;;;;;;;;;16.01;100.00;101646.53;5050692;28;19928;-71
2021/09/06 06:16:04;;;;;;;;;;;;;;;16.27;100.00;101662.47;5033851;28;19925;-71
2021/09/06 06:18:31;;;;;;;;;;;;;;;16.57;100.00;101656.06;5033807;28;19982;-71
2021/09/06 06:20:58;;;;;;;;;;;;;;;16.46;100.00;101651.56;5033612;28;19936;-71
2021/09/06 06:23:33;;;;;;;;;;;;;;;16.64;100.00;101661.84;5033773;28;19925;-71
2021/09/06 06:26:10;;;;;;;;;;;;;;;16.86;100.00;101653.38;5033310;28;19925;-71
2021/09/06 06:28:38;;;;;;;;;;;;;;;17.17;100.00;101661.47;5050395;28;19932;-71
2021/09/06 06:31:05;;;;;;;;;;;;;;;17.36;100.00;101655.09;5033614;28;19925;-71
2021/09/06 06:33:31;;;;;;;;;;;;;;;17.30;100.00;101663.03;5050200;28;20388;-71
2021/09/06 06:36:03;;;;;;;;;;;;;;;17.18;100.00;101663.22;5033549;28;19924;-71
2021/09/06 06:38:30;;;;;;;;;;;;;;;17.09;100.00;101669.56;5051241;28;19928;-71
2021/09/06 06:40:58;;;;;;;;;;;;;;;17.40;100.00;101661.16;5050253;28;19924;-71
2021/09/06 06:43:31;;;;;;;;;;;;;;;17.76;100.00;101661.38;5033299;28;19928;-71
2021/09/06 06:45:59;;;;;;;;;;;;;;;18.00;100.00;101660.03;5050139;28;19924;-71
2021/09/06 06:48:29;;;;;;;;;;;;;;;18.20;100.00;101663.53;5033186;28;19932;-71
2021/09/06 06:50:56;;;;;;;;;;;;;;;18.00;100.00;101665.50;5033624;28;19924;-71
2021/09/06 06:53:22;;;;;;;;;;;;;;;18.22;100.00;101673.34;5033385;28;20014;-71
2021/09/06 06:55:51;;;;;;;;;;;;;;;18.66;100.00;101677.31;5049821;28;19925;-72
2021/09/06 06:58:19;;;;;;;;;;;;;;;18.78;100.00;101676.06;5033079;28;20018;-71
2021/09/06 07:00:46;;;;;;;;;;;;;;;19.13;100.00;101677.09;5049660;28;20037;-71
2021/09/06 07:03:18;;;;;;;;;;;;;;;19.26;100.00;101675.88;5033337;28;19987;-71
2021/09/06 07:05:45;;;;;;;;;;;;;;;19.58;100.00;101676.09;5033165;28;19957;-71
2021/09/06 07:08:12;;;;;;;;;;;;;;;19.67;100.00;101673.41;5049905;28;19960;-71
2021/09/06 07:10:38;;;;;;;;;;;;;;;19.81;100.00;101674.75;5033535;28;19929;-72
2021/09/06 07:13:05;;;;;;;;;;;;;;;19.68;100.00;101678.78;5049829;28;19925;-72
2021/09/06 07:15:32;;;;;;;;;;;;;;;19.99;100.00;101678.31;5049657;28;19947;-71
2021/09/06 07:18:00;;;;;;;;;;;;;;;20.26;100.00;101681.00;5032930;28;19925;-72
2021/09/06 07:20:28;;;;;;;;;;;;;;;20.79;100.00;101678.97;5033494;28;19931;-72
2021/09/06 07:22:54;;;;;;;;;;;;;;;20.66;100.00;101676.69;5053757;28;19987;-72
2021/09/06 07:25:21;;;;;;;;;;;;;;;21.28;100.00;101675.41;5053782;28;19978;-71
2021/09/06 07:27:48;;;;;;;;;;;;;;;21.35;99.25;101673.66;5037141;28;19932;-71
2021/09/06 07:30:15;;;;;;;;;;;;;;;21.65;98.09;101679.56;5037132;28;19931;-72
2021/09/06 07:32:41;;;;;;;;;;;;;;;21.46;97.91;101672.44;5053719;28;19939;-71
2021/09/06 07:35:10;;;;;;;;;;;;;;;21.46;93.29;101680.72;5052912;28;19925;-71
2021/09/06 07:37:38;;;;;;;;;;;;;;;21.81;93.20;101675.91;5054996;28;19924;-71
2021/09/06 07:40:05;;;;;;;;;;;;;;;21.50;91.33;101676.59;5036737;28;19928;-71
2021/09/06 07:42:33;;;;;;;;;;;;;;;21.81;96.97;101673.16;5036875;28;19957;-72
2021/09/06 07:44:59;;;;;;;;;;;;;;;22.00;93.77;101682.94;5036873;28;19956;-71
2021/09/06 07:47:26;;;;;;;;;;;;;;;21.98;86.43;101683.13;5054382;28;19924;-71
2021/09/06 07:49:52;;;;;;;;;;;;;;;22.31;90.31;101680.22;5036817;28;19940;-71
2021/09/06 07:52:19;;;;;;;;;;;;;;;21.73;88.27;101671.25;5036271;28;19928;-71
2021/09/06 07:54:47;;;;;;;;;;;;;;;21.23;89.84;101668.50;5048237;28;19924;-71
2021/09/06 07:57:14;;;;;;;;;;;;;;;21.14;92.10;101672.28;5055964;28;20361;-71
2021/09/06 07:59:40;;;;;;;;;;;;;;;20.67;95.29;101678.38;5056577;28;20284;-71
2021/09/06 08:02:07;;;;;;;;;;;;;;;20.62;99.31;101678.91;5056119;28;19924;-71
2021/09/06 08:04:36;;;;;;;;;;;;;;;21.23;99.70;101678.66;5056405;28;19924;-71
2021/09/06 08:07:04;;;;;;;;;;;;;;;22.04;99.22;101674.09;5056118;28;19933;-71
2021/09/06 08:09:30;;;;;;;;;;;;;;;22.03;93.62;101674.28;5056227;28;19975;-71
2021/09/06 08:11:58;;;;;;;;;;;;;;;22.17;90.26;101679.06;5056130;28;19971;-72
2021/09/06 08:14:26;;;;;;;;;;;;;;;22.38;88.15;101674.84;5056185;28;19932;-72
2021/09/06 08:16:53;;;;;;;;;;;;;;;22.48;85.29;101680.19;5055941;28;20023;-72
2021/09/06 08:19:19;;;;;;;;;;;;;;;22.60;88.42;101683.41;5056083;28;19924;-71
2021/09/06 08:21:46;;;;;;;;;;;;;;;22.42;83.32;101686.44;5055915;28;20521;-71
2021/09/06 08:24:13;;;;;;;;;;;;;;;22.11;85.79;101679.78;5056053;28;20308;-71
2021/09/06 08:26:40;;;;;;;;;;;;;;;21.85;91.94;101680.03;5055833;28;19971;-71
2021/09/06 08:29:10;;;;;;;;;;;;;;;22.11;89.22;101687.22;5055548;28;19924;-71
2021/09/06 08:31:36;;;;;;;;;;;;;;;22.65;91.28;101686.47;5073540;28;20369;-72
2021/09/06 08:34:03;;;;;;;;;;;;;;;23.15;87.07;101687.91;5073095;28;19932;-71
2021/09/06 08:36:31;;;;;;;;;;;;;;;23.57;82.05;101683.75;5055784;28;19932;-71
2021/09/06 08:38:58;;;;;;;;;;;;;;;22.74;80.23;101690.94;5055627;28;20226;-71
2021/09/06 08:41:24;;;;;;;;;;;;;;;22.90;83.38;101682.53;5055783;28;19925;-71
2021/09/06 08:43:51;;;;;;;;;;;;;;;22.44;90.11;101687.13;5055584;28;19990;-71
2021/09/06 08:46:24;;;;;;;;;;;;;;;22.74;87.47;101688.16;5055629;28;19958;-71
2021/09/06 08:48:51;;;;;;;;;;;;;;;23.02;83.55;101690.41;5055207;28;19924;-71
2021/09/06 08:51:18;;;;;;;;;;;;;;;23.69;81.26;101688.81;5055643;28;19959;-71
2021/09/06 08:53:45;;;;;;;;;;;;;;;23.85;77.91;101688.69;5055521;28;20299;-72
2021/09/06 08:56:11;;;;;;;;;;;;;;;23.68;82.43;101695.44;5055158;28;19928;-71
2021/09/06 08:58:40;;;;;;;;;;;;;;;23.60;76.21;101692.72;5055353;28;19924;-71
2021/09/06 09:01:07;;;;;;;;;;;;;;;24.08;77.06;101687.78;5055347;28;19924;-72
2021/09/06 09:03:46;;;;;;;;;;;;;;;23.55;74.86;101696.06;5055480;28;20372;-71
2021/09/06 09:06:24;;;;;;;;;;;;;;;23.53;76.04;101692.63;5054559;28;19973;-71
2021/09/06 09:09:08;;;;;;;;;;;;;;;24.04;76.69;101687.28;5055100;28;19924;-71
2021/09/06 09:12:01;;;;;;;;;;;;;;;24.24;71.75;101687.56;5055181;28;20391;-72
2021/09/06 09:14:47;;;;;;;;;;;;;;;24.26;75.00;101694.84;5055114;28;20388;-71
2021/09/06 09:17:51;;;;;;;;;;;;;;;23.64;76.44;101696.88;5038137;28;19924;-71
2021/09/06 09:20:38;;;;;;;;;;;;;;;23.39;77.19;101703.47;5054942;28;19925;-72
2021/09/06 09:23:23;;;;;;;;;;;;;;;23.87;76.34;101694.88;5072376;28;20315;-71
2021/09/06 09:26:00;;;;;;;;;;;;;;;23.61;76.90;101702.78;5054918;28;19931;-72
2021/09/06 09:28:43;;;;;;;;;;;;;;;22.76;79.98;101699.91;5054741;28;19924;-72
2021/09/06 09:31:29;;;;;;;;;;;;;;;22.79;85.57;101702.31;5054960;28;20310;-71
2021/09/06 09:34:26;;;;;;;;;;;;;;;22.87;84.14;101705.03;5054601;28;19924;-71
2021/09/06 09:37:01;;;;;;;;;;;;;;;23.87;86.40;101703.19;5054562;28;19932;-71
2021/09/06 09:39:31;;;;;;;;;;;;;;;24.19;77.36;101692.81;5072405;28;19966;-71
2021/09/06 09:42:03;;;;;;;;;;;;;;;24.59;75.08;101689.72;5072183;28;19929;-72
2021/09/06 09:44:30;;;;;;;;;;;;;;;24.29;78.46;101688.91;5054476;28;19924;-72
2021/09/06 09:47:16;;;;;;;;;;;;;;;24.38;74.43;101684.97;5053574;28;19947;-72
2021/09/06 09:49:43;;;;;;;;;;;;;;;23.76;78.48;101686.16;5072156;28;19960;-72
2021/09/06 09:52:12;;;;;;;;;;;;;;;23.68;82.47;101692.69;5071168;28;19932;-72
2021/09/06 09:54:39;;;;;;;;;;;;;;;24.28;78.33;101685.28;5071836;28;19933;-71
2021/09/06 09:57:05;;;;;;;;;;;;;;;24.46;77.16;101684.84;5071252;28;20372;-71
2021/09/06 09:59:33;;;;;;;;;;;;;;;23.97;80.38;101677.13;5072039;28;19924;-70
2021/09/06 10:02:01;;;;;;;;;;;;;;;24.47;83.27;101683.81;5072066;28;20027;-69
2021/09/06 10:04:29;;;;;;;;;;;;;;;24.43;74.76;101676.94;5071627;28;19924;-67
2021/09/06 10:06:57;;;;;;;;;;;;;;;25.03;76.59;101680.44;5071261;28;19925;-66
2021/09/06 10:09:25;;;;;;;;;;;;;;;25.04;76.80;101681.28;5071691;28;19924;-73
2021/09/06 10:11:53;;;;;;;;;;;;;;;25.59;77.02;101672.41;5071968;28;19924;-73
2021/09/06 10:14:22;;;;;;;;;;;;;;;26.04;77.60;101670.16;5064047;28;20453;-74
2021/09/06 10:17:00;;;;;;;;;;;;;;;25.12;71.44;101667.28;5065139;28;19931;-74
2021/09/06 10:19:37;;;;;;;;;;;;;;;24.47;78.27;101678.25;5053410;28;19928;-74
2021/09/06 10:22:04;;;;;;;;;;;;;;;24.79;78.89;101672.47;5062344;28;19929;-73
2021/09/06 10:24:31;;;;;;;;;;;;;;;23.83;85.56;101687.16;5052809;28;19964;-74
2021/09/06 10:27:03;;;;;;;;;;;;;;;24.63;85.44;101673.59;5069893;28;19928;-74
2021/09/06 10:29:30;;;;;;;;;;;;;;;24.72;79.41;101672.41;5065025;28;20007;-74
2021/09/06 10:31:59;;;;;;;;;;;;;;;25.22;77.44;101667.78;5053027;28;19935;-74
2021/09/06 10:34:29;;;;;;;;;;;;;;;25.24;80.95;101662.91;5051484;28;19990;-74
2021/09/06 10:37:00;;;;;;;;;;;;;;;25.96;81.11;101656.41;5051378;28;19975;-70
2021/09/06 10:39:29;;;;;;;;;;;;;;;25.33;75.75;101663.59;5051413;28;19924;-69
2021/09/06 10:42:03;;;;;;;;;;;;;;;25.37;78.61;101658.53;5071437;28;19970;-69
2021/09/06 10:44:34;;;;;;;;;;;;;;;25.03;78.82;101663.75;5069287;28;19925;-69
2021/09/06 10:47:06;;;;;;;;;;;;;;;25.06;83.23;101649.47;5065381;28;19924;-69
2021/09/06 10:49:33;;;;;;;;;;;;;;;25.02;79.86;101656.47;5069069;28;19924;-69
2021/09/06 10:52:00;;;;;;;;;;;;;;;25.19;79.76;101650.69;5069795;28;19924;-69
2021/09/06 10:54:27;;;;;;;;;;;;;;;25.12;80.35;101652.50;5052016;28;19929;-69
2021/09/06 10:56:54;;;;;;;;;;;;;;;25.28;76.97;101646.69;5047908;28;19929;-69
2021/09/06 10:59:26;;;;;;;;;;;;;;;25.22;80.66;101656.66;5069646;28;19928;-69
2021/09/06 11:01:55;;;;;;;;;;;;;;;25.69;80.47;101656.22;5067457;28;19928;-69
2021/09/06 11:04:23;;;;;;;;;;;;;;;25.54;76.61;101648.84;5070659;28;19925;-69
2021/09/06 11:06:58;;;;;;;;;;;;;;;25.78;77.14;101652.22;5071260;28;20296;-70
2021/09/06 11:09:28;;;;;;;;;;;;;;;26.46;82.58;101656.28;5071262;28;19924;-69
2021/09/06 11:11:59;;;;;;;;;;;;;;;26.29;74.88;101651.03;5062297;28;19932;-69
2021/09/06 11:14:32;;;;;;;;;;;;;;;26.68;78.28;101645.84;5051306;28;19968;-69
2021/09/06 11:16:59;;;;;;;;;;;;;;;26.59;68.96;101642.41;5051655;28;20473;-69
2021/09/06 11:19:28;;;;;;;;;;;;;;;26.38;69.90;101637.81;5050923;28;19932;-66
2021/09/06 11:21:56;;;;;;;;;;;;;;;25.63;75.62;101640.34;5051036;28;20438;-66
2021/09/06 11:24:23;;;;;;;;;;;;;;;25.55;77.54;101638.59;5065529;28;19939;-66
2021/09/06 11:26:50;;;;;;;;;;;;;;;25.60;75.71;101641.63;5070548;28;19924;-66
2021/09/06 11:29:17;;;;;;;;;;;;;;;25.32;76.80;101633.25;5069703;28;19929;-66
2021/09/06 11:31:48;;;;;;;;;;;;;;;24.47;82.47;101639.41;5068149;28;19932;-66
2021/09/06 11:34:15;;;;;;;;;;;;;;;24.89;82.02;101640.56;5061338;28;19924;-65
2021/09/06 11:36:43;;;;;;;;;;;;;;;24.92;82.38;101644.00;5070752;28;20316;-66
2021/09/06 11:39:10;;;;;;;;;;;;;;;25.08;81.79;101643.75;5069138;28;19931;-66
2021/09/06 11:41:37;;;;;;;;;;;;;;;25.12;84.26;101633.94;5069084;28;20026;-66
2021/09/06 11:44:04;;;;;;;;;;;;;;;25.15;86.40;101639.09;5063217;28;19929;-66
2021/09/06 11:46:30;;;;;;;;;;;;;;;25.32;80.38;101634.13;5050543;28;20015;-66
2021/09/06 11:49:00;;;;;;;;;;;;;;;25.92;81.41;101632.84;5050478;28;20393;-66
2021/09/06 11:51:27;;;;;;;;;;;;;;;26.60;73.23;101634.91;5064752;28;19931;-66
2021/09/06 11:53:54;;;;;;;;;;;;;;;26.55;73.00;101639.16;5069737;28;19925;-66
2021/09/06 11:56:21;;;;;;;;;;;;;;;26.71;67.50;101643.53;5070520;28;20138;-66
2021/09/06 11:58:47;;;;;;;;;;;;;;;26.73;73.66;101643.31;5070321;28;19931;-66
2021/09/06 12:01:15;;;;;;;;;;;;;;;26.16;71.29;101632.38;5070379;28;19925;-66
2021/09/06 12:03:41;;;;;;;;;;;;;;;26.55;71.14;101641.94;5070481;28;19929;-66
2021/09/06 12:06:10;;;;;;;;;;;;;;;26.33;73.21;101637.59;5062680;28;20019;-66
2021/09/06 12:08:38;;;;;;;;;;;;;;;26.38;71.31;101633.09;5061803;28;20028;-66
2021/09/06 12:11:06;;;;;;;;;;;;;;;26.26;69.38;101637.56;5073783;28;19956;-66
2021/09/06 12:13:34;;;;;;;;;;;;;;;26.61;73.39;101636.63;5074146;28;19925;-66
2021/09/06 12:16:02;;;;;;;;;;;;;;;27.25;70.11;101638.03;5069284;28;19956;-66
2021/09/06 12:18:34;;;;;;;;;;;;;;;27.69;64.46;101642.09;5071190;28;19928;-67
2021/09/06 12:21:00;;;;;;;;;;;;;;;27.54;65.51;101638.72;5064591;28;20037;-67
2021/09/06 12:23:30;;;;;;;;;;;;;;;27.47;63.10;101643.41;5070289;28;19924;-66
2021/09/06 12:25:56;;;;;;;;;;;;;;;27.67;64.66;101635.91;5053711;28;20027;-66
2021/09/06 12:28:22;;;;;;;;;;;;;;;27.90;58.87;101623.41;5071750;28;19964;-66
2021/09/06 12:30:55;;;;;;;;;;;;;;;28.21;58.04;101635.78;5071783;28;20303;-66
2021/09/06 12:33:21;;;;;;;;;;;;;;;28.07;56.60;101621.00;5072561;28;20034;-66
2021/09/06 12:35:48;;;;;;;;;;;;;;;27.71;56.00;101633.53;5071975;28;19924;-66
2021/09/06 12:38:14;;;;;;;;;;;;;;;27.16;60.52;101619.81;5073495;28;20031;-66
2021/09/06 12:40:41;;;;;;;;;;;;;;;27.44;61.76;101622.41;5073471;28;20407;-66
2021/09/06 12:43:08;;;;;;;;;;;;;;;28.28;59.49;101613.44;5073481;28;19930;-65